createdAt,value
2017-10-24T00:00:33.823Z,27.07
2017-10-24T00:03:00.566Z,27.70
2017-10-24T00:05:27.277Z,27.37
2017-10-24T00:07:53.240Z,27.62
2017-10-24T00:10:19.237Z,25.77
2017-10-24T00:12:45.930Z,27.65
2017-10-24T00:15:11.904Z,27.60
2017-10-24T00:17:38.926Z,28.47
2017-10-24T00:20:04.903Z,29.33
2017-10-24T00:22:30.881Z,29.27
2017-10-24T00:24:57.634Z,28.00
2017-10-24T00:27:23.593Z,26.33
2017-10-24T00:29:49.564Z,27.60
2017-10-24T00:32:16.310Z,26.70
2017-10-24T00:34:42.266Z,28.80
2017-10-24T00:37:08.629Z,29.95
2017-10-24T00:39:34.616Z,28.58
2017-10-24T00:42:00.576Z,28.47
2017-10-24T00:44:27.501Z,28.52
2017-10-24T00:46:54.236Z,30.03
2017-10-24T00:49:20.202Z,33.60
2017-10-24T00:51:46.187Z,29.33
2017-10-24T00:54:12.174Z,27.75
2017-10-24T00:56:38.165Z,26.92
2017-10-24T00:59:04.206Z,27.90
2017-10-24T01:01:30.169Z,30.33
2017-10-24T01:03:56.434Z,27.33
2017-10-24T01:06:22.433Z,31.25
2017-10-24T01:08:49.163Z,25.67
2017-10-24T01:11:16.340Z,28.62
2017-10-24T01:13:42.350Z,27.13
2017-10-24T01:16:09.057Z,27.25
2017-10-24T01:18:35.045Z,28.67
2017-10-24T01:21:01.054Z,26.77
2017-10-24T01:23:27.001Z,30.62
2017-10-24T01:25:52.962Z,31.60
2017-10-24T01:28:19.669Z,28.02
2017-10-24T01:30:45.636Z,25.97
2017-10-24T01:33:11.933Z,29.27
2017-10-24T01:35:37.910Z,29.25
2017-10-24T01:38:03.893Z,27.73
2017-10-24T01:40:30.901Z,28.98
2017-10-24T01:42:56.869Z,31.93
2017-10-24T01:45:22.842Z,28.38
2017-10-24T01:47:48.854Z,26.93
2017-10-24T01:50:14.818Z,25.27
2017-10-24T01:52:41.540Z,27.98
2017-10-24T01:55:08.650Z,28.70
2017-10-24T01:57:34.601Z,29.23
2017-10-24T02:00:00.755Z,25.85
2017-10-24T02:02:26.741Z,26.83
2017-10-24T02:04:53.458Z,29.37
2017-10-24T02:07:19.446Z,31.30
2017-10-24T02:09:45.787Z,28.55
2017-10-24T02:12:11.762Z,27.35
2017-10-24T02:14:38.834Z,27.90
2017-10-24T02:17:04.822Z,33.35
2017-10-24T02:19:31.523Z,28.85
2017-10-24T02:21:57.482Z,29.83
2017-10-24T02:24:24.229Z,26.48
2017-10-24T02:26:50.941Z,29.58
2017-10-24T02:29:17.082Z,31.00
2017-10-24T02:31:43.817Z,32.35
2017-10-24T02:34:10.538Z,31.55
2017-10-24T02:36:36.506Z,32.77
2017-10-24T02:39:02.693Z,33.05
2017-10-24T02:41:28.649Z,29.65
2017-10-24T02:43:54.621Z,30.35
2017-10-24T02:46:20.594Z,30.65
2017-10-24T02:48:46.561Z,31.08
2017-10-24T02:51:12.521Z,34.53
2017-10-24T02:53:38.489Z,31.37
2017-10-24T02:56:04.470Z,34.45
2017-10-24T02:58:30.509Z,32.20
2017-10-24T03:00:56.475Z,30.62
2017-10-24T03:03:22.424Z,34.80
2017-10-24T03:05:48.658Z,32.40
2017-10-24T03:08:15.189Z,30.88
2017-10-24T03:10:41.156Z,31.37
2017-10-24T03:13:07.136Z,33.88
2017-10-24T03:15:40.169Z,34.83
2017-10-24T03:18:06.125Z,32.73
2017-10-24T03:20:32.874Z,34.58
2017-10-24T03:22:58.838Z,35.55
2017-10-24T03:25:24.797Z,35.40
2017-10-24T03:27:51.533Z,32.88
2017-10-24T03:30:18.241Z,33.33
2017-10-24T03:32:44.218Z,34.95
2017-10-24T03:35:10.205Z,38.25
2017-10-24T03:37:37.901Z,33.00
2017-10-24T03:40:03.874Z,33.33
2017-10-24T03:42:29.870Z,35.50
2017-10-24T03:44:55.833Z,33.30
2017-10-24T03:47:22.530Z,34.60
2017-10-24T03:49:48.514Z,35.08
2017-10-24T03:52:14.470Z,33.40
2017-10-24T03:54:40.431Z,31.12
2017-10-24T03:57:07.158Z,33.37
2017-10-24T03:59:33.850Z,33.10
2017-10-24T04:01:59.817Z,34.45
2017-10-24T04:04:26.570Z,29.90
2017-10-24T04:06:53.274Z,32.83
2017-10-24T04:09:19.616Z,29.67
2017-10-24T04:11:45.610Z,39.75
2017-10-24T04:14:11.582Z,29.05
2017-10-24T04:16:37.775Z,32.55
2017-10-24T04:19:03.732Z,36.20
2017-10-24T04:21:29.707Z,33.28
2017-10-24T04:23:55.949Z,30.52
2017-10-24T04:26:21.909Z,31.40
2017-10-24T04:28:47.889Z,35.15
2017-10-24T04:31:14.136Z,38.50
2017-10-24T04:33:40.849Z,35.60
2017-10-24T04:36:06.798Z,33.80
2017-10-24T04:38:32.786Z,38.92
2017-10-24T04:40:58.746Z,36.70
2017-10-24T04:43:24.714Z,40.10
2017-10-24T04:45:50.677Z,41.95
2017-10-24T04:48:16.628Z,43.30
2017-10-24T04:50:42.607Z,43.78
2017-10-24T04:53:09.315Z,40.60
2017-10-24T04:55:35.275Z,39.80
2017-10-24T04:58:01.285Z,42.20
2017-10-24T05:00:27.978Z,42.97
2017-10-24T05:02:53.950Z,45.40
2017-10-24T05:05:19.933Z,43.33
2017-10-24T05:07:46.327Z,43.70
2017-10-24T05:10:12.289Z,43.05
2017-10-24T05:12:38.283Z,47.38
2017-10-24T05:15:04.271Z,43.80
2017-10-24T05:17:30.237Z,41.75
2017-10-24T05:19:56.218Z,38.95
2017-10-24T05:22:22.194Z,42.72
2017-10-24T05:24:48.162Z,40.67
2017-10-24T05:27:14.122Z,35.80
2017-10-24T05:29:40.366Z,37.10
2017-10-24T05:32:07.072Z,39.85
2017-10-24T05:34:33.054Z,37.13
2017-10-24T05:36:59.303Z,36.63
2017-10-24T05:39:25.305Z,34.03
2017-10-24T05:41:51.286Z,37.63
2017-10-24T05:44:17.629Z,35.50
2017-10-24T05:46:44.349Z,33.70
2017-10-24T05:49:10.307Z,35.63
2017-10-24T05:51:36.481Z,34.15
2017-10-24T05:54:02.459Z,32.90
2017-10-24T05:56:28.413Z,33.20
2017-10-24T05:58:54.405Z,32.17
2017-10-24T06:01:20.365Z,35.77
2017-10-24T06:03:46.317Z,34.55
2017-10-24T06:06:13.021Z,34.87
2017-10-24T06:08:38.999Z,36.13
2017-10-24T06:11:05.183Z,33.95
2017-10-24T06:13:31.907Z,38.30
2017-10-24T06:15:57.867Z,36.72
2017-10-24T06:18:24.010Z,39.17
2017-10-24T06:20:49.991Z,36.60
2017-10-24T06:23:16.704Z,38.42
2017-10-24T06:25:43.057Z,37.97
2017-10-24T06:28:09.777Z,34.72
2017-10-24T06:30:35.735Z,36.00
2017-10-24T06:33:01.726Z,34.47
2017-10-24T06:35:27.684Z,41.07
2017-10-24T06:37:53.664Z,37.63
2017-10-24T06:40:19.643Z,39.87
2017-10-24T06:42:45.613Z,38.95
2017-10-24T06:45:12.342Z,48.03
2017-10-24T06:47:38.315Z,42.25
2017-10-24T06:50:04.279Z,40.87
2017-10-24T06:52:30.254Z,43.25
2017-10-24T06:54:56.426Z,42.20
2017-10-24T06:57:22.386Z,42.85
2017-10-24T06:59:48.377Z,49.60
2017-10-24T07:02:15.094Z,54.03
2017-10-24T07:04:41.062Z,51.87
2017-10-24T07:07:07.169Z,49.80
2017-10-24T07:09:33.873Z,56.17
2017-10-24T07:11:59.862Z,52.85
2017-10-24T07:14:25.863Z,58.93
2017-10-24T07:16:51.991Z,53.87
2017-10-24T07:19:17.953Z,51.45
2017-10-24T07:21:43.917Z,53.67
2017-10-24T07:24:09.918Z,54.95
2017-10-24T07:26:36.637Z,52.47
2017-10-24T07:29:02.597Z,50.97
2017-10-24T07:31:28.849Z,51.72
2017-10-24T07:33:54.814Z,50.33
2017-10-24T07:36:20.781Z,49.83
2017-10-24T07:38:46.781Z,48.85
2017-10-24T07:41:13.498Z,51.90
2017-10-24T07:43:39.469Z,47.00
2017-10-24T07:46:05.481Z,42.70
2017-10-24T07:48:31.445Z,40.17
2017-10-24T07:50:57.410Z,38.40
2017-10-24T07:53:23.394Z,41.75
2017-10-24T07:55:49.368Z,39.83
2017-10-24T07:58:15.538Z,38.17
2017-10-24T08:00:41.505Z,33.70
2017-10-24T08:03:07.486Z,35.67
2017-10-24T08:05:34.541Z,35.17
2017-10-24T08:08:01.259Z,34.28
2017-10-24T08:10:27.221Z,32.33
2017-10-24T08:12:53.604Z,30.58
2017-10-24T08:15:19.578Z,32.17
2017-10-24T08:17:45.538Z,33.55
2017-10-24T08:20:11.531Z,30.58
2017-10-24T08:22:37.492Z,35.58
2017-10-24T08:25:03.459Z,32.17
2017-10-24T08:27:29.445Z,32.58
2017-10-24T08:29:56.161Z,36.97
2017-10-24T08:32:22.127Z,33.37
2017-10-24T08:34:48.138Z,32.72
2017-10-24T08:37:14.089Z,35.30
2017-10-24T08:39:40.054Z,33.55
2017-10-24T08:42:06.120Z,37.17
2017-10-24T08:44:32.173Z,35.85
2017-10-24T08:46:58.142Z,36.53
2017-10-24T08:49:24.345Z,38.25
2017-10-24T08:51:50.297Z,38.25
2017-10-24T08:54:16.250Z,38.88
2017-10-24T08:56:42.274Z,42.28
2017-10-24T08:59:08.254Z,41.78
2017-10-24T09:01:34.243Z,46.47
2017-10-24T09:04:00.209Z,44.15
2017-10-24T09:06:41.087Z,47.65
2017-10-24T09:12:08.441Z,46.77
2017-10-24T09:14:34.441Z,45.53
2017-10-24T09:20:12.985Z,47.77
2017-10-24T09:22:38.961Z,49.83
2017-10-24T09:25:06.439Z,51.20
2017-10-24T09:27:33.169Z,47.22
2017-10-24T09:29:59.149Z,46.65
2017-10-24T09:32:36.112Z,50.00
2017-10-24T09:35:02.105Z,50.92
2017-10-24T09:37:29.237Z,57.73
2017-10-24T09:39:55.219Z,51.05
2017-10-24T09:42:21.203Z,49.83
2017-10-24T09:44:47.206Z,52.10
2017-10-24T09:47:13.944Z,54.85
2017-10-24T09:49:40.662Z,48.53
2017-10-24T09:52:06.642Z,51.67
2017-10-24T09:54:47.573Z,69.97
2017-10-24T09:57:14.317Z,71.82
2017-10-24T09:59:41.050Z,60.17
2017-10-24T10:02:07.770Z,65.25
2017-10-24T10:04:34.305Z,65.32
2017-10-24T10:07:00.269Z,57.20
2017-10-24T10:09:26.236Z,60.65
2017-10-24T10:11:52.242Z,60.83
2017-10-24T10:14:18.213Z,65.25
2017-10-24T10:16:44.946Z,63.00
2017-10-24T10:19:11.705Z,62.27
2017-10-24T10:21:37.677Z,63.53
2017-10-24T10:24:03.645Z,60.55
2017-10-24T10:26:29.639Z,66.50
2017-10-24T10:28:56.357Z,63.22
2017-10-24T10:31:22.342Z,57.17
2017-10-24T10:33:48.316Z,65.50
2017-10-24T10:36:15.021Z,62.75
2017-10-24T10:38:41.009Z,70.30
2017-10-24T10:41:06.974Z,60.95
2017-10-24T10:43:32.998Z,69.53
2017-10-24T10:45:59.248Z,68.70
2017-10-24T10:48:25.967Z,75.87
2017-10-24T10:50:51.926Z,71.53
2017-10-24T10:53:17.949Z,75.10
2017-10-24T10:55:43.929Z,67.87
2017-10-24T10:58:09.927Z,78.12
2017-10-24T11:00:35.918Z,84.25
2017-10-24T11:03:01.883Z,82.82
2017-10-24T11:05:27.845Z,79.12
2017-10-24T11:07:53.858Z,79.28
2017-10-24T11:10:19.819Z,67.03
2017-10-24T11:12:45.777Z,73.20
2017-10-24T11:15:11.813Z,61.05
2017-10-24T11:17:38.529Z,65.35
2017-10-24T11:20:04.486Z,63.03
2017-10-24T11:22:31.875Z,58.65
2017-10-24T11:24:57.854Z,61.17
2017-10-24T11:27:23.810Z,62.00
2017-10-24T11:29:49.969Z,65.70
2017-10-24T11:32:15.931Z,60.92
2017-10-24T11:34:41.893Z,65.93
2017-10-24T11:37:07.849Z,58.30
2017-10-24T11:39:34.574Z,64.35
2017-10-24T11:42:01.341Z,51.87
2017-10-24T11:44:27.297Z,53.72
2017-10-24T11:46:53.286Z,55.40
2017-10-24T11:49:19.290Z,53.60
2017-10-24T11:51:45.989Z,54.35
2017-10-24T11:54:11.959Z,51.20
2017-10-24T11:56:37.949Z,52.85
2017-10-24T11:59:04.721Z,54.10
2017-10-24T12:01:30.729Z,50.60
2017-10-24T12:03:57.449Z,48.63
2017-10-24T12:06:23.450Z,48.72
2017-10-24T12:08:49.421Z,50.63
2017-10-24T12:11:15.578Z,44.72
2017-10-24T12:13:41.545Z,47.07
2017-10-24T12:16:08.250Z,50.55
2017-10-24T12:18:34.229Z,44.33
2017-10-24T12:21:00.213Z,44.70
2017-10-24T12:23:27.780Z,45.72
2017-10-24T12:25:54.503Z,43.00
2017-10-24T12:28:21.209Z,44.30
2017-10-24T12:30:48.084Z,44.70
2017-10-24T12:33:14.806Z,42.37
2017-10-24T12:35:40.770Z,40.83
2017-10-24T12:38:06.878Z,46.70
2017-10-24T12:40:33.612Z,37.90
2017-10-24T12:43:00.337Z,41.60
2017-10-24T12:45:26.310Z,37.03
2017-10-24T12:47:52.596Z,32.50
2017-10-24T12:50:22.323Z,30.33
2017-10-24T12:52:48.306Z,29.30
2017-10-24T12:55:14.330Z,28.50
2017-10-24T12:57:41.273Z,29.98
2017-10-24T13:00:08.014Z,29.25
2017-10-24T13:02:34.272Z,28.83
2017-10-24T13:05:00.281Z,116.43
2017-10-24T13:07:27.009Z,55.92
2017-10-24T13:09:53.721Z,41.03
2017-10-24T13:12:20.582Z,48.80
2017-10-24T13:14:47.320Z,26.83
2017-10-24T13:17:14.042Z,25.10
2017-10-24T13:19:40.042Z,25.58
2017-10-24T13:22:06.014Z,26.73
2017-10-24T13:24:31.981Z,25.55
2017-10-24T13:26:57.970Z,26.55
2017-10-24T13:29:23.926Z,25.88
2017-10-24T13:31:49.901Z,24.00
2017-10-24T13:34:15.902Z,24.52
2017-10-24T13:36:42.610Z,23.75
2017-10-24T13:39:08.565Z,24.95
2017-10-24T13:41:35.311Z,21.83
2017-10-24T13:44:02.050Z,23.02
2017-10-24T13:46:28.030Z,24.33
2017-10-24T13:48:54.005Z,27.60
2017-10-24T13:51:19.961Z,26.30
2017-10-24T13:53:45.929Z,25.15
2017-10-24T13:56:12.626Z,23.23
2017-10-24T13:58:38.589Z,26.42
2017-10-24T14:01:04.597Z,28.47
2017-10-24T14:03:31.315Z,27.37
2017-10-24T14:06:03.497Z,22.92
2017-10-24T14:08:36.512Z,22.45
2017-10-24T14:11:02.484Z,22.73
2017-10-24T14:13:28.498Z,22.25
2017-10-24T14:15:54.754Z,22.27
2017-10-24T14:18:21.454Z,23.08
2017-10-24T14:20:47.421Z,22.95
2017-10-24T14:23:13.397Z,23.45
2017-10-24T14:25:39.352Z,21.85
2017-10-24T14:28:06.099Z,23.95
2017-10-24T14:30:32.074Z,23.70
2017-10-24T14:32:58.050Z,25.70
2017-10-24T14:35:24.303Z,21.47
2017-10-24T14:37:50.291Z,22.20
2017-10-24T14:40:16.253Z,25.65
2017-10-24T14:42:42.262Z,25.12
2017-10-24T14:45:08.240Z,25.25
2017-10-24T14:47:34.957Z,25.83
2017-10-24T14:50:01.223Z,26.10
2017-10-24T14:52:27.177Z,29.85
2017-10-24T14:54:53.173Z,30.45
2017-10-24T14:57:19.178Z,28.53
2017-10-24T14:59:45.161Z,27.70
2017-10-24T15:02:12.077Z,30.93
2017-10-24T15:04:38.047Z,30.45
2017-10-24T15:07:04.785Z,29.23
2017-10-24T15:09:31.510Z,27.35
2017-10-24T15:11:57.469Z,26.37
2017-10-24T15:14:23.764Z,29.43
2017-10-24T15:16:50.461Z,27.03
2017-10-24T15:19:16.764Z,26.58
2017-10-24T15:21:42.738Z,31.73
2017-10-24T15:24:08.729Z,29.60
2017-10-24T15:26:34.694Z,32.73
2017-10-24T15:29:01.413Z,29.10
2017-10-24T15:31:27.367Z,52.42
2017-10-24T15:33:53.344Z,40.58
2017-10-24T15:36:19.330Z,74.97
2017-10-24T15:38:45.293Z,45.38
2017-10-24T15:41:11.263Z,42.67
2017-10-24T15:43:37.231Z,30.70
2017-10-24T15:46:03.199Z,34.03
2017-10-24T15:48:29.462Z,32.95
2017-10-24T15:50:55.453Z,32.70
2017-10-24T15:53:21.432Z,31.37
2017-10-24T15:55:48.433Z,31.92
2017-10-24T15:58:14.413Z,33.33
2017-10-24T16:00:41.134Z,33.00
2017-10-24T16:03:08.178Z,34.00
2017-10-24T16:05:34.143Z,32.38
2017-10-24T16:08:00.103Z,32.63
2017-10-24T16:10:26.134Z,35.08
2017-10-24T16:12:52.089Z,34.23
2017-10-24T16:15:18.061Z,31.73
2017-10-24T16:17:44.074Z,33.87
2017-10-24T16:20:10.050Z,35.05
2017-10-24T16:22:36.006Z,34.40
2017-10-24T16:25:01.977Z,32.15
2017-10-24T16:27:28.674Z,33.50
2017-10-24T16:29:54.661Z,29.15
2017-10-24T16:32:20.623Z,32.83
2017-10-24T16:34:46.588Z,31.48
2017-10-24T16:37:12.550Z,32.15
2017-10-24T16:39:38.532Z,29.77
2017-10-24T16:42:04.485Z,31.58
2017-10-24T16:44:30.480Z,35.70
2017-10-24T16:46:56.661Z,30.83
2017-10-24T16:49:22.613Z,31.52
2017-10-24T16:51:48.570Z,28.83
2017-10-24T16:54:14.571Z,32.10
2017-10-24T16:56:40.529Z,32.25
2017-10-24T16:59:06.502Z,30.77
2017-10-24T17:01:39.441Z,29.12
2017-10-24T17:04:05.422Z,27.48
2017-10-24T17:06:31.390Z,28.80
2017-10-24T17:08:57.740Z,26.15
2017-10-24T17:11:23.725Z,27.17
2017-10-24T17:13:49.691Z,29.80
2017-10-24T17:16:15.674Z,28.08
2017-10-24T17:18:41.648Z,27.65
2017-10-24T17:21:07.638Z,32.55
2017-10-24T17:23:34.357Z,28.90
2017-10-24T17:26:01.084Z,28.38
2017-10-24T17:28:27.049Z,30.98
2017-10-24T17:30:53.250Z,27.73
2017-10-24T17:33:19.948Z,32.87
2017-10-24T17:35:45.938Z,28.77
2017-10-24T17:38:11.930Z,29.00
2017-10-24T17:40:38.645Z,31.42
2017-10-24T17:43:04.633Z,30.80
2017-10-24T17:45:30.653Z,30.47
2017-10-24T17:47:56.620Z,31.77
2017-10-24T17:50:23.354Z,30.60
2017-10-24T17:52:50.401Z,30.08
2017-10-24T17:55:17.111Z,31.97
2017-10-24T17:57:43.079Z,31.15
2017-10-24T18:00:09.390Z,28.30
2017-10-24T18:02:36.101Z,32.75
2017-10-24T18:05:02.098Z,30.98
2017-10-24T18:07:28.101Z,30.05
2017-10-24T18:09:54.066Z,33.30
2017-10-24T18:12:20.037Z,33.13
2017-10-24T18:14:46.489Z,31.30
2017-10-24T18:17:12.456Z,30.80
2017-10-24T18:19:39.167Z,30.10
2017-10-24T18:22:05.422Z,33.25
2017-10-24T18:24:32.182Z,31.20
2017-10-24T18:26:58.147Z,29.10
2017-10-24T18:29:24.410Z,31.20
2017-10-24T18:31:51.105Z,32.30
2017-10-24T18:34:17.154Z,32.22
2017-10-24T18:36:43.154Z,31.00
2017-10-24T18:39:09.160Z,34.58
2017-10-24T18:41:35.135Z,31.63
2017-10-24T18:44:01.306Z,32.67
2017-10-24T18:46:27.282Z,29.08
2017-10-24T18:48:53.998Z,31.02
2017-10-24T18:51:20.161Z,32.77
2017-10-24T18:53:46.157Z,29.87
2017-10-24T18:56:12.869Z,33.13
2017-10-24T18:58:38.894Z,33.83
2017-10-24T19:01:04.861Z,34.83
2017-10-24T19:03:30.861Z,32.97
2017-10-24T19:05:58.104Z,33.80
2017-10-24T19:08:24.841Z,35.05
2017-10-24T19:10:51.578Z,34.67
2017-10-24T19:13:18.790Z,34.70
2017-10-24T19:15:52.336Z,35.13
2017-10-24T19:18:19.045Z,36.97
2017-10-24T19:20:45.022Z,34.70
2017-10-24T19:23:11.012Z,33.47
2017-10-24T19:25:37.712Z,29.08
2017-10-24T19:28:04.536Z,27.65
2017-10-24T19:30:30.513Z,23.80
2017-10-24T19:32:57.252Z,28.25
2017-10-24T19:35:23.992Z,24.27
2017-10-24T19:37:50.723Z,24.63
2017-10-24T19:40:17.446Z,25.85
2017-10-24T19:42:43.477Z,25.50
2017-10-24T19:45:10.213Z,24.23
2017-10-24T19:47:36.921Z,22.95
2017-10-24T19:50:02.901Z,28.00
2017-10-24T19:52:28.857Z,27.83
2017-10-24T19:54:54.866Z,28.80
2017-10-24T19:57:20.830Z,28.33
2017-10-24T19:59:47.545Z,28.77
2017-10-24T20:02:20.620Z,30.17
2017-10-24T20:04:46.603Z,32.78
2017-10-24T20:07:12.563Z,45.30
2017-10-24T20:09:38.643Z,42.35
2017-10-24T20:12:04.629Z,60.43
2017-10-24T20:14:30.613Z,39.85
2017-10-24T20:16:56.580Z,40.07
2017-10-24T20:19:23.287Z,36.85
2017-10-24T20:21:49.432Z,32.72
2017-10-24T20:24:15.409Z,35.65
2017-10-24T20:26:41.509Z,40.15
2017-10-24T20:29:07.497Z,37.33
2017-10-24T20:31:33.487Z,39.50
2017-10-24T20:33:59.494Z,38.28
2017-10-24T20:36:25.449Z,40.37
2017-10-24T20:38:51.453Z,42.65
2017-10-24T20:41:18.166Z,36.40
2017-10-24T20:43:44.130Z,35.47
2017-10-24T20:46:10.530Z,38.45
2017-10-24T20:48:36.519Z,42.85
2017-10-24T20:51:02.483Z,40.85
2017-10-24T20:53:28.498Z,39.45
2017-10-24T20:55:54.506Z,37.95
2017-10-24T20:58:20.491Z,57.70
2017-10-24T21:00:47.207Z,57.53
2017-10-24T21:03:13.200Z,74.30
2017-10-24T21:05:39.309Z,38.97
2017-10-24T21:08:05.274Z,42.17
2017-10-24T21:10:31.238Z,37.53
2017-10-24T21:12:57.626Z,40.65
2017-10-24T21:15:24.525Z,39.97
2017-10-24T21:17:50.514Z,40.17
2017-10-24T21:20:16.526Z,41.80
2017-10-24T21:22:42.490Z,39.10
2017-10-24T21:25:08.485Z,39.00
2017-10-24T21:27:34.589Z,35.17
2017-10-24T21:30:00.702Z,37.47
2017-10-24T21:32:27.609Z,34.97
2017-10-24T21:34:53.595Z,37.10
2017-10-24T21:37:19.569Z,37.10
2017-10-24T21:39:45.576Z,34.50
2017-10-24T21:42:11.606Z,34.90
2017-10-24T21:44:37.607Z,39.03
2017-10-24T21:47:03.601Z,37.85
2017-10-24T21:49:29.663Z,37.70
2017-10-24T21:51:55.653Z,35.67
2017-10-24T21:54:21.605Z,34.08
2017-10-24T21:56:47.731Z,33.65
2017-10-24T21:59:13.697Z,33.93
2017-10-24T22:01:39.677Z,34.90
2017-10-24T22:04:05.693Z,34.93
2017-10-24T22:06:31.666Z,33.65
2017-10-24T22:09:04.738Z,34.60
2017-10-24T22:11:30.730Z,34.17
2017-10-24T22:13:56.697Z,30.63
2017-10-24T22:16:22.699Z,32.85
2017-10-24T22:18:48.682Z,32.40
2017-10-24T22:21:14.654Z,31.73
2017-10-24T22:23:40.633Z,30.05
2017-10-24T22:26:06.619Z,30.10
2017-10-24T22:28:32.601Z,30.23
2017-10-24T22:30:58.565Z,33.25
2017-10-24T22:33:24.540Z,29.83
2017-10-24T22:35:50.591Z,31.65
2017-10-24T22:38:16.561Z,30.60
2017-10-24T22:40:43.303Z,35.22
2017-10-24T22:43:10.010Z,35.58
2017-10-24T22:45:36.265Z,38.25
2017-10-24T22:48:03.008Z,37.00
2017-10-24T22:50:29.704Z,37.03
2017-10-24T22:52:55.711Z,43.08
2017-10-24T22:55:21.691Z,38.85
2017-10-24T22:57:48.445Z,36.15
2017-10-24T23:00:21.323Z,39.95
2017-10-24T23:02:47.282Z,37.37
2017-10-24T23:05:13.373Z,40.40
2017-10-24T23:07:39.345Z,38.38
2017-10-24T23:10:05.343Z,36.03
2017-10-24T23:12:31.322Z,38.90
2017-10-24T23:14:57.305Z,38.47
2017-10-24T23:17:30.264Z,40.72
2017-10-24T23:19:56.258Z,40.72
2017-10-24T23:22:22.244Z,44.85
2017-10-24T23:24:48.289Z,46.63
2017-10-24T23:27:15.005Z,44.63
2017-10-24T23:29:40.966Z,47.62
2017-10-24T23:32:06.937Z,44.33
2017-10-24T23:34:33.206Z,45.25
2017-10-24T23:36:59.171Z,46.15
2017-10-24T23:39:25.128Z,48.20
2017-10-24T23:41:51.852Z,43.70
2017-10-24T23:44:18.541Z,44.38
2017-10-24T23:46:44.529Z,45.80
2017-10-24T23:49:10.543Z,44.30
2017-10-24T23:51:37.260Z,43.38
2017-10-24T23:54:03.233Z,47.28
2017-10-24T23:56:29.241Z,45.65
2017-10-24T23:58:55.243Z,48.67
